Time;durP1;ratioP1;P1;durP2;ratioP2;P2;SDS_P1;SDS_P2;PMS_P1;PMS_P2;Temp;Humidity;BMP_temperature;BMP_pressure;BME280_temperature;BME280_humidity;BME280_pressure;Samples;Min_cycle;Max_cycle;Signal;HPM_P1;HPM_P2
2023/12/06 00:00:52;;;;;;;;;;;12.00;42.80;;;12.22;45.57;99910.38;5074195;28;19924;-35
2023/12/06 00:03:20;;;;;;;;;;;12.00;42.70;;;12.13;46.07;99895.19;5074195;28;20407;-34
2023/12/06 00:05:49;;;;;;;;;;;12.00;42.70;;;12.22;45.67;99915.41;5073530;28;19968;-34
2023/12/06 00:08:17;;;;;;;;;;;12.00;42.70;;;12.20;45.63;99906.84;5074104;28;19925;-35
2023/12/06 00:10:45;;;;;;;;;;;12.00;42.70;;;12.23;45.42;99918.09;5073954;28;20362;-35
2023/12/06 00:13:13;;;;;;;;;;;12.00;42.70;;;12.23;46.04;99917.19;5073651;28;19924;-35
2023/12/06 00:15:42;;;;;;;;;;;12.00;42.70;;;12.19;45.36;99905.94;5074104;28;19924;-35
2023/12/06 00:18:10;;;;;;;;;;;12.00;42.70;;;12.24;46.08;99916.47;5075352;28;19924;-35
2023/12/06 00:20:38;;;;;;;;;;;12.00;42.70;;;12.20;45.38;99916.88;5073815;28;19924;-35
2023/12/06 00:23:08;;;;;;;;;;;12.00;42.70;;;12.21;45.84;99913.63;5073600;28;20475;-35
2023/12/06 00:25:35;;;;;;;;;;;12.00;42.70;;;12.25;45.15;99918.28;5073614;28;20035;-34
2023/12/06 00:28:03;;;;;;;;;;;12.00;42.70;;;12.23;45.49;99914.69;5073659;28;19925;-35
2023/12/06 00:30:31;;;;;;;;;;;12.00;42.70;;;12.24;45.68;99924.00;5073074;28;19925;-35
2023/12/06 00:32:59;;;;;;;;;;;12.00;42.60;;;12.26;45.41;99920.06;5073452;28;19925;-35
2023/12/06 00:35:27;;;;;;;;;;;12.00;42.60;;;12.24;45.87;99934.06;5073310;28;19960;-35
2023/12/06 00:37:55;;;;;;;;;;;12.00;42.60;;;12.25;45.72;99935.84;5073364;28;20007;-35
2023/12/06 00:40:24;;;;;;;;;;;12.10;42.70;;;12.24;45.94;99945.00;5073387;28;20016;-35
2023/12/06 00:42:52;;;;;;;;;;;12.00;42.70;;;12.26;45.00;99950.22;5073387;28;20011;-35
2023/12/06 00:45:20;;;;;;;;;;;12.00;42.60;;;12.25;44.86;99949.31;5074391;28;19956;-34
2023/12/06 00:47:48;;;;;;;;;;;12.00;42.60;;;12.22;45.91;99943.94;5075365;28;19931;-35
2023/12/06 00:50:16;;;;;;;;;;;12.00;42.70;;;12.22;45.53;99946.44;5075934;28;19924;-35
2023/12/06 00:52:44;;;;;;;;;;;12.00;42.60;;;12.22;45.37;99950.56;5076268;28;20414;-35
2023/12/06 00:55:12;;;;;;;;;;;12.00;42.70;;;12.21;45.44;99948.78;5073595;28;20023;-35
2023/12/06 00:57:41;;;;;;;;;;;12.00;42.70;;;12.23;45.94;99959.91;5065093;28;19970;-35
2023/12/06 01:00:11;;;;;;;;;;;12.00;42.70;;;12.22;45.91;99956.47;5073962;28;20510;-35
2023/12/06 01:02:39;;;;;;;;;;;12.00;42.70;;;12.22;45.82;99960.59;5073777;28;19929;-35
2023/12/06 01:05:07;;;;;;;;;;;12.00;42.70;;;12.22;45.21;99955.59;5074569;28;19925;-35
2023/12/06 01:07:35;;;;;;;;;;;12.00;42.70;;;12.20;45.28;99957.94;5074637;28;19938;-34
2023/12/06 01:10:03;;;;;;;;;;;12.00;42.70;;;12.22;45.60;99961.50;5074966;28;20019;-35
2023/12/06 01:12:32;;;;;;;;;;;12.00;42.70;;;12.21;45.35;99963.84;5076876;28;20346;-36
2023/12/06 01:15:02;;;;;;;;;;;12.00;42.70;;;12.22;45.35;99970.66;5073837;28;19932;-35
2023/12/06 01:17:32;;;;;;;;;;;12.00;42.70;;;12.22;45.75;99970.66;5072412;28;19925;-35
2023/12/06 01:20:00;;;;;;;;;;;12.00;42.70;;;12.21;45.75;99976.41;5073393;28;20299;-36
2023/12/06 01:22:28;;;;;;;;;;;12.00;42.70;;;12.20;45.28;99977.16;5073078;28;19928;-35
2023/12/06 01:24:57;;;;;;;;;;;12.00;42.70;;;12.18;45.05;99976.06;5072779;28;20338;-35
2023/12/06 01:27:26;;;;;;;;;;;12.00;42.70;;;12.19;45.63;99976.25;5072965;28;19925;-36
2023/12/06 01:29:53;;;;;;;;;;;12.00;42.70;;;12.19;45.97;99983.78;5072433;28;20382;-35
2023/12/06 01:32:39;;;;;;;;;;;12.00;42.70;;;12.17;45.64;99982.72;5072935;28;20007;-36
2023/12/06 01:35:08;;;;;;;;;;;12.00;42.80;;;12.20;45.36;99993.13;5072419;28;20414;-35
2023/12/06 01:37:36;;;;;;;;;;;12.00;42.70;;;12.19;45.43;99990.41;5072729;28;20439;-36
2023/12/06 01:40:06;;;;;;;;;;;12.00;42.70;;;12.18;45.91;99984.50;5072628;28;20016;-35
2023/12/06 01:42:34;;;;;;;;;;;12.00;42.80;;;12.19;45.62;99990.41;5072581;28;19970;-35
2023/12/06 01:45:02;;;;;;;;;;;12.00;42.70;;;12.17;46.20;99991.84;5072407;28;19931;-35
2023/12/06 01:47:30;;;;;;;;;;;12.00;42.70;;;12.19;45.85;100000.47;5072560;28;20419;-35
2023/12/06 01:50:00;;;;;;;;;;;12.00;42.70;;;12.18;45.14;99998.66;5072441;28;19958;-34
2023/12/06 01:52:28;;;;;;;;;;;12.00;42.70;;;12.18;45.98;100004.59;5072590;28;19978;-35
2023/12/06 01:54:58;;;;;;;;;;;12.00;42.70;;;12.19;45.36;100005.50;5072261;28;19931;-35
2023/12/06 01:57:26;;;;;;;;;;;12.00;42.70;;;12.18;45.23;100009.63;5072978;28;19931;-34
2023/12/06 01:59:55;;;;;;;;;;;12.00;42.70;;;12.20;45.77;100002.25;5075030;28;20388;-34
2023/12/06 02:02:23;;;;;;;;;;;12.00;42.70;;;12.20;45.37;100013.19;5076652;28;19928;-35
2023/12/06 02:04:51;;;;;;;;;;;12.00;42.70;;;12.15;44.92;100004.22;5076946;28;19931;-35
2023/12/06 02:07:20;;;;;;;;;;;12.00;42.70;;;12.18;45.33;100016.25;5077374;28;20392;-34
2023/12/06 02:09:48;;;;;;;;;;;12.00;42.70;;;12.19;45.30;100013.03;5076861;28;19925;-35
2023/12/06 02:12:16;;;;;;;;;;;12.00;42.70;;;12.18;45.12;100013.75;5075364;28;19931;-35
2023/12/06 02:14:44;;;;;;;;;;;12.00;42.70;;;12.19;45.57;100020.56;5072453;28;20304;-35
2023/12/06 02:17:12;;;;;;;;;;;12.00;42.70;;;12.18;45.67;100018.75;5072831;28;19970;-34
2023/12/06 02:19:40;;;;;;;;;;;12.00;42.70;;;12.17;45.33;100019.47;5072383;28;20015;-34
2023/12/06 02:22:08;;;;;;;;;;;12.00;42.70;;;12.19;45.66;100023.06;5072384;28;19928;-34
2023/12/06 02:24:37;;;;;;;;;;;12.00;42.70;;;12.20;45.77;100030.78;5072073;28;19986;-34
2023/12/06 02:27:06;;;;;;;;;;;12.00;42.70;;;12.20;45.81;100032.41;5071887;28;19929;-34
2023/12/06 02:29:35;;;;;;;;;;;12.00;42.70;;;12.19;45.87;100034.00;5074030;28;19924;-35
2023/12/06 02:32:03;;;;;;;;;;;12.00;42.70;;;12.20;45.30;100032.41;5076131;28;19925;-34
2023/12/06 02:34:31;;;;;;;;;;;12.00;42.70;;;12.19;45.41;100033.13;5075981;28;20016;-35
2023/12/06 02:37:00;;;;;;;;;;;12.00;42.70;;;12.20;45.32;100032.41;5075893;28;19932;-34
2023/12/06 02:39:29;;;;;;;;;;;12.00;42.70;;;12.18;45.87;100039.75;5075315;28;20023;-35
2023/12/06 02:41:57;;;;;;;;;;;12.00;42.70;;;12.06;45.67;100014.16;5075735;28;19968;-35
2023/12/06 02:44:26;;;;;;;;;;;12.00;42.80;;;12.16;45.47;100031.13;5075268;28;20007;-35
2023/12/06 02:46:54;;;;;;;;;;;12.00;42.70;;;12.18;45.49;100033.81;5075420;28;20434;-34
2023/12/06 02:49:22;;;;;;;;;;;12.00;42.70;;;12.16;45.26;100033.66;5075145;28;19931;-35
2023/12/06 02:51:51;;;;;;;;;;;12.00;42.80;;;12.17;45.50;100042.09;5075191;28;19928;-35
2023/12/06 02:54:18;;;;;;;;;;;12.00;42.80;;;12.17;45.73;100032.03;5074819;28;19959;-35
2023/12/06 02:56:46;;;;;;;;;;;11.90;42.60;;;12.17;45.97;100035.44;5067106;28;19924;-38
2023/12/06 02:59:14;;;;;;;;;;;12.00;42.80;;;12.15;45.44;100034.38;5075147;28;20042;-35
2023/12/06 03:01:47;;;;;;;;;;;11.90;42.70;;;12.16;44.94;100035.25;5075149;28;20015;-38
2023/12/06 03:04:15;;;;;;;;;;;11.90;42.70;;;12.15;45.56;100038.50;5074833;28;20344;-35
2023/12/06 03:06:43;;;;;;;;;;;12.00;42.80;;;12.15;45.66;100035.97;5074900;28;20281;-35
2023/12/06 03:09:11;;;;;;;;;;;11.90;42.70;;;12.14;45.90;100036.72;5075096;28;19924;-35
2023/12/06 03:11:39;;;;;;;;;;;11.90;42.70;;;12.13;45.03;100039.94;5075083;28;19924;-35
2023/12/06 03:14:07;;;;;;;;;;;11.90;42.70;;;12.14;45.43;100031.69;5074599;28;19924;-36
2023/12/06 03:16:34;;;;;;;;;;;11.90;42.70;;;12.13;46.12;100039.94;5074842;28;19933;-38
2023/12/06 03:19:04;;;;;;;;;;;11.90;42.70;;;12.14;45.11;100034.22;5074830;28;19931;-35
2023/12/06 03:21:32;;;;;;;;;;;11.90;42.70;;;12.07;45.44;100026.00;5074932;28;20295;-35
2023/12/06 03:23:59;;;;;;;;;;;11.90;42.70;;;12.11;45.58;100037.25;5074694;28;19994;-35
2023/12/06 03:26:27;;;;;;;;;;;11.90;42.70;;;12.12;45.22;100044.06;5074858;28;20007;-34
2023/12/06 03:28:56;;;;;;;;;;;11.90;42.70;;;12.13;45.71;100035.81;5074346;28;19925;-35
2023/12/06 03:31:24;;;;;;;;;;;11.90;42.70;;;12.11;46.18;100047.31;5074362;28;20475;-35
2023/12/06 03:33:52;;;;;;;;;;;11.90;42.70;;;12.13;46.05;100050.00;5074155;28;19970;-38
2023/12/06 03:36:21;;;;;;;;;;;11.90;42.70;;;12.14;46.06;100046.78;5074524;28;19998;-35
2023/12/06 03:38:49;;;;;;;;;;;11.90;42.70;;;12.13;45.53;100044.97;5074499;28;19924;-36
2023/12/06 03:41:19;;;;;;;;;;;11.90;42.70;;;12.12;45.99;100055.75;5073357;28;19924;-38
2023/12/06 03:43:47;;;;;;;;;;;11.90;42.70;;;12.13;46.11;100055.03;5074136;28;20006;-34
2023/12/06 03:46:30;;;;;;;;;;;11.90;42.70;;;12.13;45.46;100062.56;5073996;28;19999;-36
2023/12/06 03:48:58;;;;;;;;;;;11.90;42.70;;;12.12;45.64;100061.66;5074421;28;19925;-35
2023/12/06 03:51:27;;;;;;;;;;;11.90;42.70;;;12.13;45.57;100065.97;5074167;28;19967;-35
2023/12/06 03:53:55;;;;;;;;;;;11.90;42.70;;;12.10;45.33;100060.56;5074030;28;20011;-34
2023/12/06 03:56:24;;;;;;;;;;;11.90;42.70;;;12.14;46.01;100061.84;5073949;28;20342;-37
2023/12/06 03:58:52;;;;;;;;;;;11.90;42.70;;;12.12;45.37;100069.19;5073751;28;20347;-35
2023/12/06 04:01:19;;;;;;;;;;;11.90;42.70;;;12.13;45.95;100070.09;5074070;28;20396;-36
2023/12/06 04:03:47;;;;;;;;;;;11.90;42.70;;;12.12;46.05;100078.34;5073690;28;19924;-36
2023/12/06 04:06:15;;;;;;;;;;;11.90;42.60;;;12.13;45.55;100080.13;5073954;28;19944;-38
2023/12/06 04:08:45;;;;;;;;;;;11.90;42.70;;;12.12;45.73;100073.31;5073911;28;19925;-35
2023/12/06 04:11:12;;;;;;;;;;;11.90;42.70;;;12.13;44.93;100081.03;5073628;28;20406;-35
2023/12/06 04:13:40;;;;;;;;;;;11.90;42.70;;;12.12;45.64;100074.22;5073578;28;20018;-35
2023/12/06 04:16:08;;;;;;;;;;;11.90;42.70;;;12.14;45.90;100081.94;5073788;28;19977;-36
2023/12/06 04:18:36;;;;;;;;;;;11.90;42.70;;;12.09;45.58;100069.72;5073545;28;20024;-34
2023/12/06 04:21:06;;;;;;;;;;;11.90;42.70;;;12.09;46.11;100077.25;5073604;28;19928;-35
2023/12/06 04:23:34;;;;;;;;;;;11.90;42.60;;;12.11;45.58;100084.06;5073196;28;20311;-38
2023/12/06 04:26:03;;;;;;;;;;;11.90;42.60;;;12.11;45.42;100084.97;5073260;28;19930;-34
2023/12/06 04:28:31;;;;;;;;;;;11.90;43.30;;;12.11;45.72;100092.50;5073269;28;19924;-35
2023/12/06 04:30:59;;;;;;;;;;;11.90;42.70;;;12.13;45.13;100085.16;5073509;28;19946;-35
2023/12/06 04:33:27;;;;;;;;;;;11.90;42.70;;;12.12;45.41;100088.38;5073119;28;20008;-34
2023/12/06 04:35:56;;;;;;;;;;;11.90;42.70;;;12.11;45.52;100087.47;5073141;28;20034;-34
2023/12/06 04:38:23;;;;;;;;;;;11.90;42.70;;;12.11;45.85;100096.63;5073128;28;19930;-35
2023/12/06 04:40:52;;;;;;;;;;;11.90;42.70;;;12.12;45.16;100100.94;5073250;28;19968;-34
2023/12/06 04:43:21;;;;;;;;;;;11.90;42.60;;;12.09;45.70;100107.38;5073322;28;20029;-35
2023/12/06 04:45:49;;;;;;;;;;;11.90;42.70;;;12.11;45.30;100111.69;5073061;28;19931;-35
2023/12/06 04:48:16;;;;;;;;;;;11.90;42.70;;;12.12;45.06;100123.53;5073061;28;19924;-36
2023/12/06 04:50:44;;;;;;;;;;;11.90;42.70;;;12.09;45.54;100114.91;5073323;28;19931;-37
2023/12/06 04:53:12;;;;;;;;;;;11.90;43.30;;;12.12;45.45;100126.06;5072711;28;20473;-37
2023/12/06 04:55:40;;;;;;;;;;;11.90;42.60;;;12.09;45.41;100124.97;5072680;28;19928;-34
2023/12/06 04:58:08;;;;;;;;;;;11.90;42.60;;;12.09;45.58;100130.00;5072968;28;19924;-34
2023/12/06 05:00:37;;;;;;;;;;;11.90;42.60;;;12.12;45.89;100126.06;5072569;28;19971;-34
2023/12/06 05:03:06;;;;;;;;;;;11.90;42.60;;;12.11;44.95;100131.78;5072665;28;19951;-34
2023/12/06 05:05:34;;;;;;;;;;;11.90;42.70;;;11.91;45.28;100107.78;5072319;28;19925;-35
2023/12/06 05:08:02;;;;;;;;;;;11.90;42.70;;;12.08;46.18;100128.19;5072743;28;19932;-34
2023/12/06 05:10:30;;;;;;;;;;;11.90;42.60;;;11.83;45.65;100083.41;5072521;28;19924;-34
2023/12/06 05:12:58;;;;;;;;;;;11.90;42.60;;;12.05;45.19;100132.88;5072889;28;20023;-34
2023/12/06 05:15:25;;;;;;;;;;;11.90;42.60;;;12.09;45.61;100135.00;5072391;28;19933;-35
2023/12/06 05:17:55;;;;;;;;;;;11.90;42.60;;;12.11;45.38;100131.78;5072441;28;19968;-36
2023/12/06 05:20:23;;;;;;;;;;;11.90;42.60;;;12.11;45.55;100137.72;5072316;28;19928;-38
2023/12/06 05:22:51;;;;;;;;;;;11.90;42.60;;;12.09;45.75;100135.00;5072528;28;19925;-34
2023/12/06 05:25:19;;;;;;;;;;;11.90;42.60;;;12.09;45.40;100137.53;5072348;28;20459;-34
2023/12/06 05:27:47;;;;;;;;;;;11.90;42.60;;;12.09;45.20;100130.00;5072235;28;19970;-37
2023/12/06 05:30:15;;;;;;;;;;;11.90;42.50;;;12.09;46.00;100129.09;5072153;28;19925;-38
2023/12/06 05:32:43;;;;;;;;;;;11.90;42.60;;;12.08;45.39;100138.22;5071963;28;20019;-39
2023/12/06 05:35:12;;;;;;;;;;;11.90;42.60;;;12.06;45.31;100139.69;5072235;28;20011;-35
2023/12/06 05:37:40;;;;;;;;;;;11.90;42.60;;;11.99;45.05;100131.28;5072249;28;20034;-35
2023/12/06 05:40:09;;;;;;;;;;;11.90;42.50;;;12.11;45.71;100141.84;5072105;28;20023;-34
2023/12/06 05:42:37;;;;;;;;;;;11.90;42.60;;;12.10;45.89;100145.94;5072174;28;19947;-36
2023/12/06 05:45:06;;;;;;;;;;;11.90;42.60;;;12.11;45.34;100146.84;5071775;28;19928;-38
2023/12/06 05:47:34;;;;;;;;;;;11.90;42.60;;;12.09;45.62;100155.09;5072230;28;19924;-34
2023/12/06 05:50:03;;;;;;;;;;;11.90;42.60;;;12.08;45.57;100147.38;5072179;28;19975;-34
2023/12/06 05:52:33;;;;;;;;;;;11.90;42.60;;;12.08;45.16;100152.41;5072111;28;19924;-34
2023/12/06 05:55:00;;;;;;;;;;;11.90;42.60;;;12.07;45.95;100156.56;5071793;28;19924;-34
2023/12/06 05:57:28;;;;;;;;;;;11.90;42.60;;;12.08;45.52;100163.34;5072097;28;19931;-35
2023/12/06 05:59:58;;;;;;;;;;;11.90;42.60;;;12.02;45.05;100155.09;5071766;28;19924;-35
2023/12/06 06:02:26;;;;;;;;;;;11.90;42.60;;;12.06;46.11;100159.78;5072121;28;19934;-36
2023/12/06 06:04:54;;;;;;;;;;;11.90;42.60;;;12.06;45.07;100169.84;5071327;28;19925;-37
2023/12/06 06:07:21;;;;;;;;;;;11.90;42.60;;;12.06;44.94;100169.84;5072024;28;19924;-37
2023/12/06 06:09:52;;;;;;;;;;;11.90;42.60;;;12.05;45.09;100168.03;5072046;28;19925;-34
2023/12/06 06:12:28;;;;;;;;;;;11.90;42.60;;;12.07;45.50;100174.13;5071611;28;20384;-35
2023/12/06 06:14:56;;;;;;;;;;;11.80;42.50;;;12.02;45.98;100172.69;5071203;28;19929;-35
2023/12/06 06:17:24;;;;;;;;;;;11.80;42.60;;;12.02;45.34;100175.19;5071754;28;19947;-35
2023/12/06 06:19:52;;;;;;;;;;;11.90;42.80;;;12.05;45.89;100175.56;5071798;28;19978;-35
2023/12/06 06:22:20;;;;;;;;;;;11.90;42.60;;;12.06;45.53;100179.88;5072003;28;19924;-36
2023/12/06 06:24:48;;;;;;;;;;;11.90;42.60;;;12.03;45.26;100189.53;5071288;28;19924;-38
2023/12/06 06:27:17;;;;;;;;;;;11.80;42.50;;;12.06;45.04;100179.88;5072290;28;19924;-39
2023/12/06 06:29:45;;;;;;;;;;;11.80;42.50;;;12.01;45.38;100180.94;5071384;28;20384;-36
2023/12/06 06:32:13;;;;;;;;;;;11.80;42.60;;;12.05;46.03;100187.22;5072077;28;19952;-36
2023/12/06 06:34:42;;;;;;;;;;;11.80;42.50;;;12.03;45.62;100192.06;5071302;28;19985;-38
2023/12/06 06:37:10;;;;;;;;;;;11.90;42.60;;;11.99;44.92;100177.38;5070996;28;20288;-39
2023/12/06 06:39:39;;;;;;;;;;;11.80;42.60;;;12.05;45.72;100187.22;5071232;28;19924;-35
2023/12/06 06:42:07;;;;;;;;;;;11.80;42.50;;;12.04;45.23;100191.34;5071294;28;20312;-36
2023/12/06 06:44:36;;;;;;;;;;;11.80;42.50;;;12.04;45.19;100196.38;5071498;28;20019;-35
2023/12/06 06:47:23;;;;;;;;;;;11.80;42.50;;;12.01;45.46;100190.09;5071214;28;19924;-34
2023/12/06 06:49:52;;;;;;;;;;;11.80;42.50;;;12.02;45.71;100197.78;5071300;28;20383;-35
2023/12/06 06:52:20;;;;;;;;;;;11.80;42.50;;;12.02;45.86;100202.81;5071727;28;19925;-35
2023/12/06 06:54:48;;;;;;;;;;;11.80;42.50;;;12.04;45.37;100205.50;5071302;28;19950;-35
2023/12/06 06:57:16;;;;;;;;;;;11.80;42.50;;;12.04;45.61;100201.38;5071289;28;19924;-35
2023/12/06 06:59:45;;;;;;;;;;;11.80;42.50;;;12.05;45.94;100227.41;5070975;28;19924;-35
2023/12/06 07:02:13;;;;;;;;;;;11.80;42.50;;;12.04;45.94;100211.44;5071095;28;20449;-36
2023/12/06 07:04:41;;;;;;;;;;;11.80;42.50;;;12.03;45.10;100214.66;5070996;28;20379;-36
2023/12/06 07:07:09;;;;;;;;;;;11.80;42.50;;;12.07;45.71;100231.91;5071380;28;20311;-34
2023/12/06 07:09:37;;;;;;;;;;;11.90;42.50;;;12.05;45.60;100240.84;5071187;28;20005;-34
2023/12/06 07:12:08;;;;;;;;;;;11.80;42.50;;;12.04;45.46;100241.56;5071245;28;19924;-34
2023/12/06 07:14:36;;;;;;;;;;;11.80;42.50;;;12.02;45.36;100237.97;5071058;28;20007;-34
2023/12/06 07:17:08;;;;;;;;;;;11.90;42.50;;;12.07;45.24;100236.91;5073416;28;20289;-35
2023/12/06 07:19:36;;;;;;;;;;;11.80;42.50;;;12.04;45.22;100246.59;5074590;28;20396;-35
2023/12/06 07:22:06;;;;;;;;;;;11.80;42.50;;;12.05;45.58;100247.47;5074815;28;19928;-35
2023/12/06 07:24:34;;;;;;;;;;;11.80;42.50;;;12.07;45.96;100251.97;5074365;28;19932;-34
2023/12/06 07:27:03;;;;;;;;;;;11.80;42.50;;;12.05;45.50;100242.47;5066405;28;19925;-35
2023/12/06 07:29:31;;;;;;;;;;;11.80;42.50;;;12.03;45.40;100254.81;5074117;28;19928;-34
2023/12/06 07:31:59;;;;;;;;;;;11.80;42.50;;;12.04;45.07;100256.63;5074166;28;19979;-38
2023/12/06 07:34:29;;;;;;;;;;;11.80;42.50;;;12.06;44.94;100257.72;5074528;28;19928;-34
2023/12/06 07:37:09;;;;;;;;;;;11.80;42.50;;;12.02;45.55;100253.03;5074110;28;19928;-36
2023/12/06 07:39:37;;;;;;;;;;;11.90;42.50;;;12.05;45.33;100262.56;5073828;28;19925;-36
2023/12/06 07:42:05;;;;;;;;;;;11.90;42.50;;;12.05;45.51;100268.47;5074448;28;19928;-39
2023/12/06 07:44:34;;;;;;;;;;;11.80;42.40;;;12.04;45.58;100276.72;5073971;28;19924;-35
2023/12/06 07:47:02;;;;;;;;;;;11.90;42.50;;;12.04;44.81;100274.19;5074325;28;20007;-36
2023/12/06 07:49:31;;;;;;;;;;;11.80;42.40;;;12.04;45.50;100274.19;5074113;28;19970;-36
2023/12/06 07:51:59;;;;;;;;;;;11.80;42.40;;;12.05;45.46;100278.50;5074481;28;20452;-36
2023/12/06 07:54:27;;;;;;;;;;;11.80;42.40;;;12.00;46.13;100277.09;5074114;28;19925;-36
2023/12/06 07:56:56;;;;;;;;;;;11.80;42.40;;;12.05;45.64;100283.53;5074053;28;19930;-36
2023/12/06 07:59:24;;;;;;;;;;;11.80;42.50;;;12.03;44.90;100279.94;5073899;28;19928;-37
2023/12/06 08:01:54;;;;;;;;;;;11.80;42.40;;;12.04;45.02;100285.84;5074305;28;19967;-35
2023/12/06 08:04:22;;;;;;;;;;;11.80;43.10;;;12.03;45.26;100289.97;5073744;28;19924;-35
2023/12/06 08:06:54;;;;;;;;;;;11.80;42.40;;;12.02;45.00;100292.31;5073615;28;19928;-35
2023/12/06 08:09:23;;;;;;;;;;;11.80;42.40;;;12.02;45.21;100298.22;5073716;28;19930;-36
2023/12/06 08:11:51;;;;;;;;;;;11.80;42.40;;;12.04;45.47;100306.84;5073793;28;19925;-34
2023/12/06 08:14:19;;;;;;;;;;;11.80;42.40;;;12.03;45.51;100302.53;5073436;28;19924;-35
2023/12/06 08:16:47;;;;;;;;;;;11.80;42.40;;;12.02;45.18;100303.25;5073766;28;19924;-35
2023/12/06 08:19:15;;;;;;;;;;;11.80;42.40;;;12.06;45.58;100314.56;5073252;28;19999;-35
2023/12/06 08:21:43;;;;;;;;;;;11.80;42.40;;;12.02;45.58;100304.84;5073581;28;19978;-35
2023/12/06 08:24:12;;;;;;;;;;;11.80;42.40;;;12.03;45.34;100306.66;5073517;28;19978;-35
2023/12/06 08:26:40;;;;;;;;;;;11.80;42.50;;;12.02;45.37;100313.28;5073049;28;20023;-35
2023/12/06 08:29:07;;;;;;;;;;;11.80;42.50;;;12.03;45.49;100317.59;5073360;28;20019;-34
2023/12/06 08:31:36;;;;;;;;;;;11.80;42.40;;;12.06;45.84;100322.09;5073241;28;19931;-35
2023/12/06 08:34:04;;;;;;;;;;;11.80;42.50;;;12.04;45.93;100324.44;5073368;28;19924;-38
2023/12/06 08:36:32;;;;;;;;;;;11.80;42.40;;;12.03;45.74;100322.63;5073570;28;19924;-37
2023/12/06 08:39:00;;;;;;;;;;;11.80;42.40;;;12.04;45.36;100316.91;5072988;28;20027;-35
2023/12/06 08:41:29;;;;;;;;;;;11.80;42.50;;;12.02;44.75;100315.81;5073228;28;20015;-37
2023/12/06 08:43:57;;;;;;;;;;;11.80;42.50;;;12.04;45.91;100319.41;5072711;28;19924;-37
2023/12/06 08:46:25;;;;;;;;;;;11.80;42.40;;;12.03;45.17;100330.16;5072874;28;20369;-36
2023/12/06 08:48:53;;;;;;;;;;;11.80;43.00;;;12.03;45.23;100332.66;5072738;28;20011;-37
2023/12/06 08:51:22;;;;;;;;;;;11.80;42.40;;;12.05;45.54;100328.75;5073284;28;19924;-36
2023/12/06 08:53:49;;;;;;;;;;;11.80;42.40;;;12.04;44.80;100331.97;5072552;28;20288;-36
2023/12/06 08:56:17;;;;;;;;;;;11.80;42.40;;;12.03;45.44;100330.16;5072957;28;19929;-37
2023/12/06 08:58:46;;;;;;;;;;;11.80;42.50;;;12.04;44.80;100336.97;5072547;28;19924;-36
2023/12/06 09:01:15;;;;;;;;;;;11.80;42.40;;;12.03;45.46;100340.19;5072969;28;19932;-36
2023/12/06 09:03:43;;;;;;;;;;;11.80;42.50;;;12.04;45.67;100341.09;5072728;28;19925;-37
2023/12/06 09:06:11;;;;;;;;;;;11.80;42.50;;;12.04;45.67;100339.50;5072885;28;20023;-36
2023/12/06 09:08:39;;;;;;;;;;;11.80;42.40;;;12.04;44.96;100342.00;5072755;28;19924;-36
2023/12/06 09:11:07;;;;;;;;;;;11.80;42.40;;;12.06;45.67;100349.72;5072494;28;19925;-37
2023/12/06 09:13:35;;;;;;;;;;;11.90;42.50;;;12.06;45.70;100349.72;5072325;28;19928;-38
2023/12/06 09:16:05;;;;;;;;;;;11.80;42.40;;;11.99;45.36;100338.06;5072564;28;19932;-38
2023/12/06 09:18:34;;;;;;;;;;;11.90;42.50;;;12.08;45.65;100349.16;5072236;28;19935;-36
2023/12/06 09:21:04;;;;;;;;;;;11.80;42.40;;;12.07;45.05;100357.44;5072327;28;19939;-37
2023/12/06 09:23:32;;;;;;;;;;;11.80;42.40;;;12.05;45.40;100353.84;5072229;28;19929;-36
2023/12/06 09:26:01;;;;;;;;;;;11.90;42.40;;;12.05;45.45;100358.88;5072055;28;19928;-36
2023/12/06 09:28:29;;;;;;;;;;;11.80;42.40;;;12.05;45.86;100365.50;5072226;28;19924;-36
2023/12/06 09:30:57;;;;;;;;;;;11.80;42.40;;;12.05;44.94;100361.38;5070767;28;19924;-36
2023/12/06 09:33:26;;;;;;;;;;;11.90;42.40;;;12.04;45.31;100362.09;5072097;28;19924;-37
2023/12/06 09:35:54;;;;;;;;;;;11.90;42.40;;;12.05;44.97;100363.00;5071838;28;20015;-37
2023/12/06 09:38:22;;;;;;;;;;;11.80;42.40;;;12.03;45.32;100365.31;5070958;28;20418;-36
2023/12/06 09:40:50;;;;;;;;;;;11.80;42.40;;;12.04;45.33;100372.13;5071679;28;19936;-37
2023/12/06 09:43:19;;;;;;;;;;;11.80;42.40;;;12.03;45.44;100367.81;5071977;28;19931;-38
2023/12/06 09:45:47;;;;;;;;;;;11.80;42.40;;;12.03;45.06;100369.44;5071765;28;20376;-36
2023/12/06 09:48:15;;;;;;;;;;;11.80;42.40;;;12.00;45.36;100375.00;5071952;28;20391;-36
2023/12/06 09:50:45;;;;;;;;;;;11.80;42.50;;;12.01;45.62;100376.78;5071997;28;20122;-38
2023/12/06 09:53:13;;;;;;;;;;;11.80;42.50;;;12.00;45.93;100380.03;5071847;28;19928;-36
2023/12/06 09:55:40;;;;;;;;;;;11.80;42.50;;;11.96;45.37;100367.81;5071971;28;19935;-36
2023/12/06 09:58:08;;;;;;;;;;;11.80;42.50;;;12.01;45.39;100380.94;5071783;28;19925;-36
2023/12/06 10:00:36;;;;;;;;;;;11.80;42.50;;;12.01;45.94;100381.78;5071814;28;20307;-36
2023/12/06 10:03:04;;;;;;;;;;;11.80;42.50;;;12.00;45.93;100375.00;5071894;28;20337;-37
2023/12/06 10:05:32;;;;;;;;;;;11.80;42.50;;;12.01;45.06;100381.78;5071757;28;19925;-37
2023/12/06 10:08:01;;;;;;;;;;;11.90;42.50;;;12.02;45.98;100388.63;5071634;28;20381;-37
2023/12/06 10:10:29;;;;;;;;;;;11.80;42.50;;;12.03;45.08;100395.44;5071889;28;20015;-37
2023/12/06 10:12:57;;;;;;;;;;;11.80;42.50;;;12.02;45.37;100397.75;5071627;28;19954;-36
2023/12/06 10:15:25;;;;;;;;;;;11.80;42.40;;;12.06;45.31;100384.88;5071625;28;19959;-37
2023/12/06 10:17:53;;;;;;;;;;;11.90;42.50;;;12.06;45.01;100399.94;5071626;28;20346;-36
2023/12/06 10:20:22;;;;;;;;;;;11.90;42.40;;;12.07;45.70;100407.69;5071624;28;19924;-37
2023/12/06 10:22:50;;;;;;;;;;;11.90;42.50;;;12.07;45.37;100397.63;5071735;28;19932;-37
2023/12/06 10:25:19;;;;;;;;;;;11.90;42.40;;;12.11;44.94;100408.03;5071611;28;20004;-36
2023/12/06 10:27:48;;;;;;;;;;;11.90;42.40;;;12.09;45.21;100406.22;5072003;28;19956;-36
2023/12/06 10:30:20;;;;;;;;;;;11.90;42.40;;;12.11;44.88;100408.03;5071186;28;19925;-36
2023/12/06 10:32:48;;;;;;;;;;;11.90;42.40;;;12.11;45.57;100413.03;5071339;28;19929;-36
2023/12/06 10:35:16;;;;;;;;;;;11.90;42.40;;;12.13;45.13;100411.63;5071545;28;19924;-36
2023/12/06 10:37:44;;;;;;;;;;;11.90;42.40;;;12.11;45.27;100408.03;5071582;28;19926;-36
2023/12/06 10:40:12;;;;;;;;;;;11.90;42.40;;;12.12;45.28;100409.81;5071330;28;19928;-36
2023/12/06 10:42:45;;;;;;;;;;;11.90;42.40;;;12.16;45.61;100411.97;5071758;28;19931;-36
2023/12/06 10:45:13;;;;;;;;;;;11.90;42.30;;;12.15;45.44;100405.16;5063049;28;19970;-38
2023/12/06 10:47:41;;;;;;;;;;;11.90;42.30;;;12.15;44.84;100415.19;5071665;28;19929;-36
2023/12/06 10:50:09;;;;;;;;;;;11.90;42.30;;;12.17;45.58;100403.72;5072931;28;19928;-37
2023/12/06 10:52:37;;;;;;;;;;;11.90;42.30;;;12.14;45.34;100403.38;5075280;28;19978;-36
2023/12/06 10:55:06;;;;;;;;;;;11.90;42.30;;;12.15;45.33;100406.06;5074758;28;20303;-36
2023/12/06 10:57:37;;;;;;;;;;;11.90;42.30;;;12.16;45.51;100401.94;5074972;28;20023;-36
2023/12/06 11:00:08;;;;;;;;;;;11.90;42.30;;;12.16;45.39;100396.91;5074866;28;19925;-38
2023/12/06 11:02:36;;;;;;;;;;;12.00;42.40;;;12.15;45.46;100396.00;5075466;28;20023;-36
2023/12/06 11:05:05;;;;;;;;;;;12.00;42.30;;;12.17;45.14;100398.72;5074740;28;20338;-36
2023/12/06 11:07:42;;;;;;;;;;;12.00;42.40;;;12.19;45.22;100402.31;5074888;28;20291;-36
2023/12/06 11:10:14;;;;;;;;;;;12.00;42.40;;;12.20;45.02;100412.56;5074565;28;20046;-36
2023/12/06 11:12:50;;;;;;;;;;;12.00;42.40;;;12.15;45.48;100395.09;5075011;28;19974;-36
2023/12/06 11:15:26;;;;;;;;;;;12.00;42.30;;;12.20;45.14;100400.00;5074573;28;19928;-36